Time;durP1;ratioP1;P1;durP2;ratioP2;P2;SDS_P1;SDS_P2;PMS_P1;PMS_P2;Temp;Humidity;BMP_temperature;BMP_pressure;BME280_temperature;BME280_humidity;BME280_pressure;Samples;Min_cycle;Max_cycle;Signal;HPM_P1;HPM_P2
2023/12/11 00:01:12;;;;;;;0.10;0.10;;;;;;;;;;4964432;28;20082;-77
2023/12/11 00:03:38;;;;;;;0.63;0.63;;;;;;;;;;4958413;28;20058;-77
2023/12/11 00:06:06;;;;;;;0.10;0.10;;;;;;;;;;4992377;28;20545;-77
2023/12/11 00:08:32;;;;;;;0.40;0.40;;;;;;;;;;4975449;28;20066;-77
2023/12/11 00:10:59;;;;;;;0.10;0.10;;;;;;;;;;4993177;28;20055;-76
2023/12/11 00:13:25;;;;;;;0.10;0.10;;;;;;;;;;4991619;28;20105;-78
2023/12/11 00:15:52;;;;;;;0.10;0.10;;;;;;;;;;4992451;28;20059;-77
2023/12/11 00:18:18;;;;;;;0.93;0.93;;;;;;;;;;4991416;28;20055;-77
2023/12/11 00:20:45;;;;;;;0.10;0.10;;;;;;;;;;4992055;28;20055;-77
2023/12/11 00:23:11;;;;;;;0.10;0.10;;;;;;;;;;4990672;28;20063;-76
2023/12/11 00:25:43;;;;;;;0.10;0.10;;;;;;;;;;4992717;28;20051;-77
2023/12/11 00:28:10;;;;;;;2.80;1.48;;;;;;;;;;4974548;28;20055;-78
2023/12/11 00:30:37;;;;;;;0.10;0.10;;;;;;;;;;4992107;28;20926;-78
2023/12/11 00:33:03;;;;;;;4.13;2.83;;;;;;;;;;4988419;28;20061;-77
2023/12/11 00:35:30;;;;;;;0.10;0.10;;;;;;;;;;4991474;28;21055;-76
2023/12/11 00:37:56;;;;;;;1.45;0.52;;;;;;;;;;4991880;28;20147;-77
2023/12/11 00:40:22;;;;;;;0.10;0.10;;;;;;;;;;4974314;28;20058;-78
2023/12/11 00:42:49;;;;;;;2.05;1.05;;;;;;;;;;4990786;28;20055;-77
2023/12/11 00:45:16;;;;;;;0.65;0.65;;;;;;;;;;4993366;28;20065;-78
2023/12/11 00:47:42;;;;;;;1.65;1.00;;;;;;;;;;4992110;28;20050;-77
2023/12/11 00:50:08;;;;;;;0.10;0.10;;;;;;;;;;4987545;28;20837;-77
2023/12/11 00:52:35;;;;;;;0.20;0.20;;;;;;;;;;4982995;28;20071;-76
2023/12/11 00:55:02;;;;;;;0.10;0.10;;;;;;;;;;4991261;28;20070;-77
2023/12/11 00:57:29;;;;;;;0.10;0.10;;;;;;;;;;4991175;28;20051;-77
2023/12/11 00:59:56;;;;;;;0.10;0.10;;;;;;;;;;5003777;23;20058;-81
2023/12/11 01:02:22;;;;;;;0.10;0.10;;;;;;;;;;5022016;28;20051;-81
2023/12/11 01:04:49;;;;;;;0.05;0.05;;;;;;;;;;5013095;28;20054;-81
2023/12/11 01:07:15;;;;;;;0.70;0.70;;;;;;;;;;4989323;28;20095;-81
2023/12/11 01:09:42;;;;;;;0.10;0.10;;;;;;;;;;4999711;28;22398;-81
2023/12/11 01:12:08;;;;;;;0.00;0.00;;;;;;;;;;4984788;28;20049;-81
2023/12/11 01:14:37;;;;;;;0.10;0.10;;;;;;;;;;5002112;28;20141;-81
2023/12/11 01:17:04;;;;;;;0.10;0.10;;;;;;;;;;5000244;28;20117;-80
2023/12/11 01:19:50;;;;;;;0.10;0.10;;;;;;;;;;5002379;28;20039;-80
2023/12/11 01:22:17;;;;;;;0.10;0.10;;;;;;;;;;5000751;28;20094;-80
2023/12/11 01:24:43;;;;;;;0.05;0.05;;;;;;;;;;4982970;28;20061;-80
2023/12/11 01:27:10;;;;;;;0.73;0.73;;;;;;;;;;5000891;28;20062;-80
2023/12/11 01:29:36;;;;;;;0.10;0.10;;;;;;;;;;4986834;28;20167;-80
2023/12/11 01:32:03;;;;;;;0.10;0.10;;;;;;;;;;4987383;28;20074;-80
2023/12/11 01:34:30;;;;;;;0.10;0.10;;;;;;;;;;4987303;28;20093;-79
2023/12/11 01:36:56;;;;;;;0.10;0.10;;;;;;;;;;5000118;28;20094;-80
2023/12/11 01:39:23;;;;;;;0.10;0.10;;;;;;;;;;5004150;28;20051;-79
2023/12/11 01:41:49;;;;;;;0.10;0.10;;;;;;;;;;5004579;28;20044;-80
2023/12/11 01:44:16;;;;;;;0.52;0.28;;;;;;;;;;4989409;28;20114;-80
2023/12/11 01:46:42;;;;;;;0.20;0.20;;;;;;;;;;4969771;28;20051;-80
2023/12/11 01:49:09;;;;;;;0.10;0.10;;;;;;;;;;5005892;28;20077;-80
2023/12/11 01:51:36;;;;;;;0.10;0.10;;;;;;;;;;4987866;28;20053;-80
2023/12/11 01:54:03;;;;;;;6.85;1.75;;;;;;;;;;4988858;28;20050;-80
2023/12/11 01:56:29;;;;;;;1.17;0.63;;;;;;;;;;4987040;28;20759;-80
2023/12/11 01:58:56;;;;;;;0.10;0.10;;;;;;;;;;4985113;28;20046;-81
2023/12/11 02:01:23;;;;;;;0.10;0.10;;;;;;;;;;5001954;28;20070;-80
2023/12/11 02:03:51;;;;;;;0.10;0.10;;;;;;;;;;4986373;28;20054;-80
2023/12/11 02:06:18;;;;;;;0.05;0.05;;;;;;;;;;4986470;28;20043;-80
2023/12/11 02:08:45;;;;;;;0.10;0.10;;;;;;;;;;4984548;28;20047;-80
2023/12/11 02:11:12;;;;;;;1.08;0.55;;;;;;;;;;4986263;28;20066;-80
2023/12/11 02:13:39;;;;;;;0.10;0.10;;;;;;;;;;5003564;28;20059;-81
2023/12/11 02:16:06;;;;;;;0.10;0.10;;;;;;;;;;4985217;28;20059;-81
2023/12/11 02:18:32;;;;;;;0.10;0.10;;;;;;;;;;5001040;28;20058;-80
2023/12/11 02:20:59;;;;;;;0.10;0.10;;;;;;;;;;4983970;28;20063;-81
2023/12/11 02:23:38;;;;;;;0.43;0.43;;;;;;;;;;4984952;28;20063;-81
2023/12/11 02:26:04;;;;;;;0.10;0.10;;;;;;;;;;4990352;28;20078;-81
2023/12/11 02:28:31;;;;;;;0.10;0.10;;;;;;;;;;4992629;28;20078;-81
2023/12/11 02:30:58;;;;;;;0.10;0.10;;;;;;;;;;4997770;28;20082;-81
2023/12/11 02:33:25;;;;;;;0.30;0.30;;;;;;;;;;4996439;28;20054;-81
2023/12/11 02:35:52;;;;;;;0.10;0.10;;;;;;;;;;4993789;28;20062;-81
2023/12/11 02:38:18;;;;;;;9.93;1.55;;;;;;;;;;5002137;28;20097;-81
2023/12/11 02:40:44;;;;;;;0.13;0.13;;;;;;;;;;4981604;28;20084;-81
2023/12/11 02:43:11;;;;;;;0.10;0.10;;;;;;;;;;4995210;28;20138;-81
2023/12/11 02:45:37;;;;;;;0.10;0.10;;;;;;;;;;4995664;28;20031;-81
2023/12/11 02:48:04;;;;;;;0.10;0.10;;;;;;;;;;4992206;28;20369;-82
2023/12/11 02:50:31;;;;;;;0.10;0.10;;;;;;;;;;4994930;28;20078;-81
2023/12/11 02:52:58;;;;;;;0.20;0.20;;;;;;;;;;4997326;28;20055;-82
2023/12/11 02:55:25;;;;;;;0.10;0.10;;;;;;;;;;4976480;28;20114;-82
2023/12/11 02:57:55;;;;;;;0.13;0.13;;;;;;;;;;5002563;28;20063;-82
2023/12/11 03:00:22;;;;;;;0.10;0.10;;;;;;;;;;4976456;28;20115;-83
2023/12/11 03:02:48;;;;;;;0.10;0.10;;;;;;;;;;4993360;28;20058;-83
2023/12/11 03:05:15;;;;;;;2.47;0.90;;;;;;;;;;4990689;28;20051;-82
2023/12/11 03:07:41;;;;;;;0.10;0.10;;;;;;;;;;4998591;28;20066;-83
2023/12/11 03:10:08;;;;;;;0.10;0.10;;;;;;;;;;4997955;28;20059;-83
2023/12/11 03:12:35;;;;;;;0.10;0.10;;;;;;;;;;4993106;28;20054;-82
2023/12/11 03:15:05;;;;;;;0.10;0.10;;;;;;;;;;4977039;28;20062;-83
2023/12/11 03:17:32;;;;;;;0.10;0.10;;;;;;;;;;4985215;28;20062;-83
2023/12/11 03:19:59;;;;;;;0.63;0.63;;;;;;;;;;4978079;28;20513;-82
2023/12/11 03:22:26;;;;;;;0.20;0.20;;;;;;;;;;4994649;28;20055;-83
2023/12/11 03:24:53;;;;;;;0.10;0.10;;;;;;;;;;4995809;28;20054;-82
2023/12/11 03:27:22;;;;;;;0.10;0.10;;;;;;;;;;5001262;28;21109;-81
2023/12/11 03:29:49;;;;;;;0.10;0.10;;;;;;;;;;4995397;28;20942;-82
2023/12/11 03:32:15;;;;;;;0.10;0.10;;;;;;;;;;4994990;28;20087;-82
2023/12/11 03:34:42;;;;;;;0.10;0.10;;;;;;;;;;4979725;28;20055;-81
2023/12/11 03:37:09;;;;;;;0.10;0.10;;;;;;;;;;4994441;28;20047;-82
2023/12/11 03:39:36;;;;;;;0.10;0.10;;;;;;;;;;4977169;28;20054;-81
2023/12/11 03:42:03;;;;;;;0.55;0.43;;;;;;;;;;4994847;28;20055;-82
2023/12/11 03:44:29;;;;;;;0.10;0.10;;;;;;;;;;4996737;28;20050;-81
2023/12/11 03:46:57;;;;;;;0.10;0.10;;;;;;;;;;5006569;28;20133;-81
2023/12/11 03:49:24;;;;;;;0.10;0.10;;;;;;;;;;4996076;28;20054;-80
2023/12/11 03:51:51;;;;;;;0.10;0.10;;;;;;;;;;4998713;28;20046;-81
2023/12/11 03:54:17;;;;;;;0.10;0.10;;;;;;;;;;4997454;28;20055;-82
2023/12/11 03:56:44;;;;;;;0.10;0.10;;;;;;;;;;5004912;28;20055;-81
2023/12/11 03:59:11;;;;;;;0.10;0.10;;;;;;;;;;5003742;28;20093;-82
2023/12/11 04:01:38;;;;;;;0.10;0.10;;;;;;;;;;5002506;28;20062;-81
2023/12/11 04:04:05;;;;;;;0.10;0.10;;;;;;;;;;4995096;28;20195;-82
2023/12/11 04:06:31;;;;;;;0.10;0.10;;;;;;;;;;4982009;28;20055;-81
2023/12/11 04:08:58;;;;;;;0.10;0.10;;;;;;;;;;4997561;28;20054;-81
2023/12/11 04:11:24;;;;;;;2.15;2.05;;;;;;;;;;4982203;28;20059;-82
2023/12/11 04:13:51;;;;;;;0.05;0.05;;;;;;;;;;4997188;28;20106;-82
2023/12/11 04:16:17;;;;;;;0.20;0.20;;;;;;;;;;5005622;28;20158;-81
2023/12/11 04:18:44;;;;;;;0.10;0.10;;;;;;;;;;4996267;28;20529;-82
2023/12/11 04:21:10;;;;;;;0.10;0.10;;;;;;;;;;4998830;28;20054;-81
2023/12/11 04:23:37;;;;;;;0.10;0.10;;;;;;;;;;4997293;28;20109;-81
2023/12/11 04:26:03;;;;;;;0.15;0.15;;;;;;;;;;4995262;28;20524;-82
2023/12/11 04:28:30;;;;;;;0.80;0.60;;;;;;;;;;4997319;28;20042;-82
2023/12/11 04:30:56;;;;;;;2.28;1.17;;;;;;;;;;4996398;28;20051;-81
2023/12/11 04:33:23;;;;;;;0.10;0.10;;;;;;;;;;4997958;28;20063;-82
2023/12/11 04:35:49;;;;;;;0.10;0.10;;;;;;;;;;4981251;28;20113;-82
2023/12/11 04:38:16;;;;;;;0.10;0.10;;;;;;;;;;4993617;28;20062;-81
2023/12/11 04:40:42;;;;;;;0.10;0.10;;;;;;;;;;4980615;28;20067;-81
2023/12/11 04:43:09;;;;;;;0.10;0.10;;;;;;;;;;4981561;28;20073;-81
2023/12/11 04:45:35;;;;;;;0.10;0.10;;;;;;;;;;4997041;28;20146;-82
2023/12/11 04:48:02;;;;;;;0.10;0.10;;;;;;;;;;4983838;28;20058;-81
2023/12/11 04:50:28;;;;;;;0.10;0.10;;;;;;;;;;4979395;28;20055;-83
2023/12/11 04:52:55;;;;;;;0.10;0.10;;;;;;;;;;4996078;28;20055;-81
2023/12/11 04:55:21;;;;;;;0.10;0.10;;;;;;;;;;4996924;28;20212;-81
2023/12/11 04:57:48;;;;;;;0.35;0.35;;;;;;;;;;4980231;28;20035;-81
2023/12/11 05:00:15;;;;;;;0.10;0.10;;;;;;;;;;4997669;28;20047;-82
2023/12/11 05:02:42;;;;;;;0.10;0.10;;;;;;;;;;4978673;28;20111;-81
2023/12/11 05:05:10;;;;;;;0.10;0.10;;;;;;;;;;4997001;28;20067;-81
2023/12/11 05:07:36;;;;;;;0.10;0.10;;;;;;;;;;4977513;28;20055;-81
2023/12/11 05:10:03;;;;;;;0.10;0.10;;;;;;;;;;4978920;28;20110;-81
2023/12/11 05:12:29;;;;;;;0.20;0.20;;;;;;;;;;4978705;28;20094;-81
2023/12/11 05:14:56;;;;;;;0.13;0.13;;;;;;;;;;4979122;28;20055;-83
2023/12/11 05:17:22;;;;;;;14.85;1.67;;;;;;;;;;4977674;28;20043;-82
2023/12/11 05:19:49;;;;;;;0.10;0.10;;;;;;;;;;4980064;28;20137;-82
2023/12/11 05:22:15;;;;;;;0.10;0.10;;;;;;;;;;4979372;28;20051;-81
2023/12/11 05:24:42;;;;;;;0.90;0.90;;;;;;;;;;4996559;28;20569;-82
2023/12/11 05:27:10;;;;;;;0.10;0.10;;;;;;;;;;4978900;28;20039;-82
2023/12/11 05:29:37;;;;;;;0.10;0.10;;;;;;;;;;4980017;28;20113;-81
2023/12/11 05:32:05;;;;;;;0.10;0.10;;;;;;;;;;4987844;28;20059;-81
2023/12/11 05:34:31;;;;;;;0.15;0.15;;;;;;;;;;4992305;28;20576;-81
2023/12/11 05:36:58;;;;;;;0.10;0.10;;;;;;;;;;4979313;28;20099;-82
2023/12/11 05:39:25;;;;;;;0.10;0.10;;;;;;;;;;4978906;28;20047;-81
2023/12/11 05:41:51;;;;;;;0.10;0.10;;;;;;;;;;4978530;28;20556;-81
2023/12/11 05:44:18;;;;;;;0.10;0.10;;;;;;;;;;4976306;28;20063;-82
2023/12/11 05:46:44;;;;;;;0.10;0.10;;;;;;;;;;4978711;28;20065;-82
2023/12/11 05:49:11;;;;;;;0.10;0.10;;;;;;;;;;4996690;28;20110;-81
2023/12/11 05:51:38;;;;;;;0.10;0.10;;;;;;;;;;4973390;28;20122;-81
2023/12/11 05:54:04;;;;;;;0.20;0.20;;;;;;;;;;4995055;28;20050;-81
2023/12/11 05:56:31;;;;;;;0.10;0.10;;;;;;;;;;4978350;28;20115;-81
2023/12/11 05:58:57;;;;;;;0.10;0.10;;;;;;;;;;4995782;28;20054;-81
2023/12/11 06:01:25;;;;;;;0.10;0.10;;;;;;;;;;4977968;28;20062;-81
2023/12/11 06:03:52;;;;;;;0.10;0.10;;;;;;;;;;4980227;28;20086;-81
2023/12/11 06:06:18;;;;;;;0.10;0.10;;;;;;;;;;4972836;28;20606;-79
2023/12/11 06:08:45;;;;;;;0.10;0.10;;;;;;;;;;4976437;28;20086;-79
2023/12/11 06:11:11;;;;;;;0.10;0.10;;;;;;;;;;4992314;28;20047;-79
2023/12/11 06:13:38;;;;;;;0.17;0.17;;;;;;;;;;4992169;28;20505;-79
2023/12/11 06:16:04;;;;;;;0.10;0.10;;;;;;;;;;4974549;28;20803;-80
2023/12/11 06:18:31;;;;;;;0.10;0.10;;;;;;;;;;4992356;28;20485;-80
2023/12/11 06:20:58;;;;;;;0.10;0.10;;;;;;;;;;4987222;28;20058;-80
2023/12/11 06:23:29;;;;;;;0.10;0.10;;;;;;;;;;4974509;28;20055;-79
2023/12/11 06:25:56;;;;;;;0.10;0.10;;;;;;;;;;4973114;28;20055;-79
2023/12/11 06:28:22;;;;;;;0.82;0.68;;;;;;;;;;4990360;28;20118;-79
2023/12/11 06:30:49;;;;;;;0.10;0.10;;;;;;;;;;4973442;28;20055;-79
2023/12/11 06:33:15;;;;;;;0.10;0.10;;;;;;;;;;4973480;28;20071;-79
2023/12/11 06:35:42;;;;;;;0.10;0.10;;;;;;;;;;4991844;28;20757;-80
2023/12/11 06:38:08;;;;;;;0.85;0.85;;;;;;;;;;4976497;28;20034;-80
2023/12/11 06:40:35;;;;;;;0.15;0.15;;;;;;;;;;4980330;28;20065;-80
2023/12/11 06:43:01;;;;;;;0.10;0.10;;;;;;;;;;4975867;28;20050;-80
2023/12/11 06:45:29;;;;;;;0.10;0.10;;;;;;;;;;4976312;28;20043;-80
2023/12/11 06:48:00;;;;;;;0.10;0.10;;;;;;;;;;4991817;28;20055;-80
2023/12/11 06:50:27;;;;;;;0.10;0.10;;;;;;;;;;4991787;28;20042;-80
2023/12/11 06:52:53;;;;;;;0.10;0.10;;;;;;;;;;4988706;28;20051;-81
2023/12/11 06:55:20;;;;;;;0.10;0.10;;;;;;;;;;4995904;28;20473;-80
2023/12/11 06:57:46;;;;;;;0.10;0.10;;;;;;;;;;4980065;28;20086;-80
2023/12/11 07:00:14;;;;;;;0.10;0.10;;;;;;;;;;4976269;28;20058;-80
2023/12/11 07:02:40;;;;;;;0.10;0.10;;;;;;;;;;4977118;28;20794;-81
2023/12/11 07:05:07;;;;;;;0.10;0.10;;;;;;;;;;4976628;28;20058;-81
2023/12/11 07:07:34;;;;;;;0.10;0.10;;;;;;;;;;5052172;23;20047;-75
2023/12/11 07:10:04;;;;;;;0.10;0.10;;;;;;;;;;5017794;28;22158;-76
2023/12/11 07:12:31;;;;;;;0.10;0.10;;;;;;;;;;5037930;28;20038;-75
2023/12/11 07:14:57;;;;;;;0.10;0.10;;;;;;;;;;5026367;28;20054;-75
2023/12/11 07:17:24;;;;;;;0.10;0.10;;;;;;;;;;5044537;28;20077;-76
2023/12/11 07:19:50;;;;;;;0.10;0.10;;;;;;;;;;5027672;28;20054;-75
2023/12/11 07:22:17;;;;;;;0.10;0.10;;;;;;;;;;5027963;28;20140;-77
2023/12/11 07:24:43;;;;;;;0.10;0.10;;;;;;;;;;5026050;28;20061;-75
2023/12/11 07:27:11;;;;;;;0.10;0.10;;;;;;;;;;5025656;28;20058;-75
2023/12/11 07:29:37;;;;;;;0.10;0.10;;;;;;;;;;5024698;28;20054;-76
2023/12/11 07:32:04;;;;;;;0.10;0.10;;;;;;;;;;5024437;28;20065;-75
2023/12/11 07:34:30;;;;;;;0.10;0.10;;;;;;;;;;5028206;28;20166;-75
2023/12/11 07:36:57;;;;;;;0.10;0.10;;;;;;;;;;5019772;28;20055;-75
2023/12/11 07:39:24;;;;;;;0.10;0.10;;;;;;;;;;5025221;28;20058;-75
2023/12/11 07:41:51;;;;;;;0.10;0.10;;;;;;;;;;5027287;28;20058;-75
2023/12/11 07:44:17;;;;;;;0.10;0.10;;;;;;;;;;5043125;28;20116;-75
2023/12/11 07:46:44;;;;;;;0.10;0.10;;;;;;;;;;5003596;28;20068;-76
2023/12/11 07:49:13;;;;;;;0.10;0.10;;;;;;;;;;5045014;28;20144;-76
2023/12/11 07:51:40;;;;;;;0.10;0.10;;;;;;;;;;5012799;28;20504;-77
2023/12/11 07:54:08;;;;;;;0.10;0.10;;;;;;;;;;5027054;28;20064;-77
2023/12/11 07:56:36;;;;;;;0.10;0.10;;;;;;;;;;5022424;28;20054;-75
2023/12/11 07:59:03;;;;;;;0.10;0.10;;;;;;;;;;5026200;28;20065;-75
2023/12/11 08:01:32;;;;;;;0.10;0.10;;;;;;;;;;5026851;28;20066;-74
2023/12/11 08:03:59;;;;;;;0.10;0.10;;;;;;;;;;5039701;28;20093;-77
2023/12/11 08:06:26;;;;;;;0.15;0.15;;;;;;;;;;5027322;28;20054;-74
2023/12/11 08:08:52;;;;;;;0.10;0.10;;;;;;;;;;5027693;28;20133;-74
2023/12/11 08:11:25;;;;;;;0.10;0.10;;;;;;;;;;5029557;28;20149;-77
2023/12/11 08:13:51;;;;;;;0.10;0.10;;;;;;;;;;5029615;28;20053;-77
2023/12/11 08:16:18;;;;;;;0.10;0.10;;;;;;;;;;5029570;28;20030;-76
2023/12/11 08:18:45;;;;;;;0.10;0.10;;;;;;;;;;5025728;28;20060;-74
2023/12/11 08:21:12;;;;;;;0.10;0.10;;;;;;;;;;5027014;28;20873;-75
2023/12/11 08:23:39;;;;;;;0.10;0.10;;;;;;;;;;5029862;28;20581;-74
2023/12/11 08:26:06;;;;;;;0.10;0.10;;;;;;;;;;5029723;28;20092;-74
2023/12/11 08:28:33;;;;;;;0.10;0.10;;;;;;;;;;5028372;28;20050;-77
2023/12/11 08:30:59;;;;;;;0.20;0.20;;;;;;;;;;5029023;28;20516;-74
2023/12/11 08:33:26;;;;;;;0.10;0.10;;;;;;;;;;5027362;28;20053;-74
2023/12/11 08:35:53;;;;;;;0.32;0.32;;;;;;;;;;5044320;28;20050;-76
2023/12/11 08:38:22;;;;;;;0.10;0.10;;;;;;;;;;5020744;28;20061;-74
2023/12/11 08:40:49;;;;;;;0.10;0.10;;;;;;;;;;5044018;28;20057;-74
2023/12/11 08:43:16;;;;;;;0.10;0.10;;;;;;;;;;5027526;28;20145;-75
2023/12/11 08:45:43;;;;;;;0.10;0.10;;;;;;;;;;5028009;28;20057;-75
2023/12/11 08:48:09;;;;;;;0.10;0.10;;;;;;;;;;5027610;28;20209;-75
2023/12/11 08:50:36;;;;;;;0.10;0.10;;;;;;;;;;5026672;28;20068;-74
2023/12/11 08:53:03;;;;;;;0.10;0.10;;;;;;;;;;5041691;28;20085;-75
2023/12/11 08:55:30;;;;;;;0.10;0.10;;;;;;;;;;5046557;28;20054;-76
2023/12/11 08:57:56;;;;;;;0.08;0.08;;;;;;;;;;5025502;28;20065;-75
2023/12/11 09:00:23;;;;;;;0.10;0.10;;;;;;;;;;5026110;28;20077;-75
2023/12/11 09:02:51;;;;;;;0.10;0.10;;;;;;;;;;5023799;28;20526;-74
2023/12/11 09:05:17;;;;;;;0.10;0.10;;;;;;;;;;5023570;28;20054;-75
2023/12/11 09:07:44;;;;;;;3.50;0.68;;;;;;;;;;5024413;28;20058;-74
2023/12/11 09:10:10;;;;;;;0.10;0.10;;;;;;;;;;5040337;28;20104;-76
2023/12/11 09:12:37;;;;;;;0.10;0.10;;;;;;;;;;5024628;28;20053;-74
2023/12/11 09:15:04;;;;;;;0.10;0.10;;;;;;;;;;5026889;28;20045;-74
2023/12/11 09:17:31;;;;;;;0.10;0.10;;;;;;;;;;5027632;28;20049;-75
2023/12/11 09:19:58;;;;;;;0.10;0.10;;;;;;;;;;5010825;28;20053;-76
2023/12/11 09:22:25;;;;;;;0.52;0.52;;;;;;;;;;5022903;28;20062;-77
2023/12/11 09:24:52;;;;;;;0.10;0.10;;;;;;;;;;5028146;28;20088;-75
2023/12/11 09:27:18;;;;;;;8.57;1.40;;;;;;;;;;5043010;28;20064;-76
2023/12/11 09:29:48;;;;;;;0.10;0.10;;;;;;;;;;5023829;28;20153;-75
2023/12/11 09:32:18;;;;;;;0.10;0.10;;;;;;;;;;5022374;28;20287;-76
2023/12/11 09:34:44;;;;;;;0.10;0.10;;;;;;;;;;5034500;28;20061;-76
2023/12/11 09:37:11;;;;;;;0.10;0.10;;;;;;;;;;5025465;28;20037;-77
2023/12/11 09:39:39;;;;;;;0.10;0.10;;;;;;;;;;5024854;28;20061;-78
2023/12/11 09:42:07;;;;;;;0.10;0.10;;;;;;;;;;5026360;28;20211;-75
2023/12/11 09:44:34;;;;;;;0.10;0.10;;;;;;;;;;5028186;28;20062;-76
2023/12/11 09:47:13;;;;;;;0.10;0.10;;;;;;;;;;5028180;28;20054;-77
2023/12/11 09:49:39;;;;;;;3.10;1.33;;;;;;;;;;5030913;28;20178;-75
2023/12/11 09:52:06;;;;;;;0.10;0.10;;;;;;;;;;5041513;28;20500;-74
2023/12/11 09:54:33;;;;;;;0.10;0.10;;;;;;;;;;5023639;28;20065;-75
2023/12/11 09:57:00;;;;;;;0.10;0.10;;;;;;;;;;5025359;28;20085;-75
2023/12/11 09:59:27;;;;;;;0.10;0.10;;;;;;;;;;5013150;28;20049;-74
2023/12/11 10:01:54;;;;;;;0.10;0.10;;;;;;;;;;5039830;28;20112;-75
2023/12/11 10:04:20;;;;;;;0.10;0.10;;;;;;;;;;5025140;28;20151;-75
2023/12/11 10:06:50;;;;;;;0.13;0.13;;;;;;;;;;5027497;28;20839;-77
2023/12/11 10:09:26;;;;;;;0.10;0.10;;;;;;;;;;5025559;28;20903;-74
2023/12/11 10:12:00;;;;;;;0.80;0.68;;;;;;;;;;5024529;28;20669;-76
2023/12/11 10:14:30;;;;;;;0.40;0.40;;;;;;;;;;5040982;28;20550;-76
2023/12/11 10:16:57;;;;;;;0.10;0.10;;;;;;;;;;5022908;28;20145;-75
2023/12/11 10:19:31;;;;;;;0.10;0.10;;;;;;;;;;5021490;28;20058;-76
2023/12/11 10:21:57;;;;;;;0.10;0.10;;;;;;;;;;5024897;28;20125;-77
2023/12/11 10:24:24;;;;;;;0.10;0.10;;;;;;;;;;5025047;28;20058;-76
2023/12/11 10:26:55;;;;;;;0.10;0.10;;;;;;;;;;5024301;28;20050;-78
2023/12/11 10:29:23;;;;;;;0.10;0.10;;;;;;;;;;5022891;28;20085;-75
2023/12/11 10:31:50;;;;;;;0.10;0.10;;;;;;;;;;5020387;28;20057;-78
2023/12/11 10:34:16;;;;;;;0.10;0.10;;;;;;;;;;5022569;28;20054;-76
2023/12/11 10:36:47;;;;;;;0.10;0.10;;;;;;;;;;5025467;28;20064;-77
2023/12/11 10:39:14;;;;;;;0.10;0.10;;;;;;;;;;5026823;28;20855;-75
2023/12/11 10:41:40;;;;;;;0.10;0.10;;;;;;;;;;5026254;28;20563;-75
2023/12/11 10:44:06;;;;;;;0.10;0.10;;;;;;;;;;5025677;28;20112;-78
2023/12/11 10:46:48;;;;;;;0.10;0.10;;;;;;;;;;5021310;28;20058;-75
2023/12/11 10:49:14;;;;;;;0.25;0.25;;;;;;;;;;5020869;28;20528;-77
2023/12/11 10:51:41;;;;;;;0.10;0.10;;;;;;;;;;5021729;28;20096;-76
2023/12/11 10:54:08;;;;;;;0.10;0.10;;;;;;;;;;5025842;28;20504;-76
2023/12/11 10:56:35;;;;;;;0.10;0.10;;;;;;;;;;5039640;28;20089;-77
2023/12/11 10:59:24;;;;;;;0.10;0.10;;;;;;;;;;5043729;28;20054;-81
2023/12/11 11:02:06;;;;;;;0.10;0.10;;;;;;;;;;5022766;28;20057;-79
2023/12/11 11:04:36;;;;;;;0.10;0.10;;;;;;;;;;5022570;28;20062;-77
2023/12/11 11:07:14;;;;;;;0.15;0.15;;;;;;;;;;5024809;28;20081;-77
2023/12/11 11:09:49;;;;;;;0.10;0.10;;;;;;;;;;5017399;28;20058;-78
2023/12/11 11:12:30;;;;;;;0.10;0.10;;;;;;;;;;5020601;28;20058;-76
2023/12/11 11:14:57;;;;;;;;;;;;;;;;;;5040618;28;20064;-77
2023/12/11 11:17:23;;;;;;;0.10;0.10;;;;;;;;;;5024841;28;45991;-78
2023/12/11 11:20:08;;;;;;;0.10;0.10;;;;;;;;;;5025030;28;20100;-76
2023/12/11 11:22:35;;;;;;;0.10;0.10;;;;;;;;;;5024377;28;20057;-76
2023/12/11 11:25:25;;;;;;;0.10;0.10;;;;;;;;;;5023370;28;20064;-76
2023/12/11 11:27:51;;;;;;;0.10;0.10;;;;;;;;;;5025568;28;20057;-77
2023/12/11 11:30:37;;;;;;;0.10;0.10;;;;;;;;;;5025351;28;20058;-77
2023/12/11 11:33:04;;;;;;;0.10;0.10;;;;;;;;;;5020828;28;20062;-77
2023/12/11 11:35:43;;;;;;;0.38;0.38;;;;;;;;;;5018302;28;20062;-75
2023/12/11 11:38:09;;;;;;;0.20;0.20;;;;;;;;;;5022635;28;20058;-76
2023/12/11 11:40:36;;;;;;;0.10;0.10;;;;;;;;;;5023519;28;20105;-77
2023/12/11 11:43:03;;;;;;;0.10;0.10;;;;;;;;;;5028200;28;20061;-74
2023/12/11 11:45:30;;;;;;;0.10;0.10;;;;;;;;;;5028808;28;20054;-77
2023/12/11 11:47:56;;;;;;;0.10;0.10;;;;;;;;;;5029429;28;20077;-74
2023/12/11 11:50:22;;;;;;;0.10;0.10;;;;;;;;;;5028180;28;20132;-79
2023/12/11 11:52:53;;;;;;;0.10;0.10;;;;;;;;;;5029772;28;20054;-77
2023/12/11 11:55:21;;;;;;;0.10;0.10;;;;;;;;;;5024673;28;20054;-76
2023/12/11 11:57:47;;;;;;;0.10;0.10;;;;;;;;;;5042091;28;20050;-76
2023/12/11 12:00:20;;;;;;;0.10;0.10;;;;;;;;;;5028468;28;20112;-77
2023/12/11 12:02:46;;;;;;;0.10;0.10;;;;;;;;;;5024760;28;20062;-75
2023/12/11 12:05:13;;;;;;;0.10;0.10;;;;;;;;;;5029542;28;20108;-76
2023/12/11 12:07:39;;;;;;;0.10;0.10;;;;;;;;;;5022958;28;20049;-76
2023/12/11 12:10:07;;;;;;;0.10;0.10;;;;;;;;;;5023503;28;20141;-77
2023/12/11 12:12:34;;;;;;;1.55;0.85;;;;;;;;;;5018593;28;20054;-76
2023/12/11 12:15:01;;;;;;;0.10;0.10;;;;;;;;;;5027634;28;20089;-76
2023/12/11 12:17:28;;;;;;;0.10;0.10;;;;;;;;;;5026972;28;20053;-77
2023/12/11 12:19:55;;;;;;;0.10;0.10;;;;;;;;;;5027910;28;20089;-75
2023/12/11 12:22:24;;;;;;;0.10;0.10;;;;;;;;;;5035169;28;20050;-76
2023/12/11 12:24:51;;;;;;;0.28;0.25;;;;;;;;;;5043563;28;20060;-77
2023/12/11 12:27:20;;;;;;;0.10;0.10;;;;;;;;;;5026402;28;20065;-76
2023/12/11 12:29:47;;;;;;;0.20;0.20;;;;;;;;;;5027860;28;20050;-76
2023/12/11 12:32:15;;;;;;;0.10;0.10;;;;;;;;;;5028375;28;20101;-77
2023/12/11 12:34:44;;;;;;;0.10;0.10;;;;;;;;;;5026317;28;20177;-76
2023/12/11 12:37:11;;;;;;;0.10;0.10;;;;;;;;;;5026315;28;20939;-75
2023/12/11 12:39:38;;;;;;;0.10;0.10;;;;;;;;;;5026771;28;20583;-75
2023/12/11 12:42:04;;;;;;;0.10;0.10;;;;;;;;;;5026248;28;20192;-77
2023/12/11 12:44:37;;;;;;;0.10;0.10;;;;;;;;;;5027067;28;20042;-75
2023/12/11 12:47:04;;;;;;;0.10;0.10;;;;;;;;;;5026338;28;20429;-75
2023/12/11 12:49:30;;;;;;;0.10;0.10;;;;;;;;;;5016371;28;20050;-75
2023/12/11 12:51:57;;;;;;;0.10;0.10;;;;;;;;;;5026116;28;20054;-75
2023/12/11 12:54:24;;;;;;;0.10;0.10;;;;;;;;;;5042230;28;20053;-78
2023/12/11 12:56:58;;;;;;;0.43;0.43;;;;;;;;;;5031670;28;20479;-75
2023/12/11 12:59:25;;;;;;;0.10;0.10;;;;;;;;;;5024378;28;20053;-76
2023/12/11 13:01:52;;;;;;;0.10;0.10;;;;;;;;;;5027061;28;20141;-75
2023/12/11 13:04:20;;;;;;;0.10;0.10;;;;;;;;;;5024382;28;20061;-76
2023/12/11 13:06:46;;;;;;;0.10;0.10;;;;;;;;;;5040521;28;20547;-76
2023/12/11 13:09:29;;;;;;;0.10;0.10;;;;;;;;;;5026275;28;20509;-75
2023/12/11 13:11:55;;;;;;;0.68;0.38;;;;;;;;;;5040415;28;20058;-75
2023/12/11 13:14:23;;;;;;;0.10;0.10;;;;;;;;;;5028353;28;20132;-76
2023/12/11 13:16:50;;;;;;;0.10;0.10;;;;;;;;;;5015879;28;23327;-75
2023/12/11 13:19:16;;;;;;;0.10;0.10;;;;;;;;;;5023982;28;20054;-75
2023/12/11 13:21:43;;;;;;;0.10;0.10;;;;;;;;;;5025868;28;20053;-75
2023/12/11 13:24:09;;;;;;;0.10;0.10;;;;;;;;;;5024038;28;20504;-77
2023/12/11 13:26:36;;;;;;;0.38;0.32;;;;;;;;;;5020700;28;20132;-76
2023/12/11 13:29:03;;;;;;;0.10;0.10;;;;;;;;;;5025533;28;20057;-75
2023/12/11 13:31:30;;;;;;;0.10;0.10;;;;;;;;;;5024927;28;20073;-76
2023/12/11 13:33:56;;;;;;;0.10;0.10;;;;;;;;;;5026980;28;20584;-74
2023/12/11 13:36:22;;;;;;;0.90;0.90;;;;;;;;;;5025476;28;20050;-75
2023/12/11 13:38:49;;;;;;;0.10;0.10;;;;;;;;;;5026085;28;20061;-74
2023/12/11 13:41:15;;;;;;;0.10;0.10;;;;;;;;;;5027948;28;20116;-74
2023/12/11 13:43:42;;;;;;;0.10;0.10;;;;;;;;;;5026620;28;20120;-74
2023/12/11 13:46:08;;;;;;;0.10;0.10;;;;;;;;;;5029182;28;20053;-74
2023/12/11 13:48:36;;;;;;;0.10;0.10;;;;;;;;;;5027301;28;20060;-75
2023/12/11 13:51:05;;;;;;;0.10;0.10;;;;;;;;;;5025380;28;20050;-76
2023/12/11 13:53:31;;;;;;;0.10;0.10;;;;;;;;;;5026651;28;20058;-76
2023/12/11 13:55:58;;;;;;;0.10;0.10;;;;;;;;;;5027650;28;20100;-75
2023/12/11 13:58:24;;;;;;;0.10;0.10;;;;;;;;;;5025839;28;20061;-75
2023/12/11 14:00:51;;;;;;;0.10;0.10;;;;;;;;;;5026727;28;20531;-75
2023/12/11 14:03:20;;;;;;;0.10;0.10;;;;;;;;;;5030817;28;20523;-76
2023/12/11 14:05:51;;;;;;;0.10;0.10;;;;;;;;;;5026896;28;20077;-75
2023/12/11 14:08:18;;;;;;;0.10;0.10;;;;;;;;;;5025660;28;20097;-76
2023/12/11 14:10:44;;;;;;;0.10;0.10;;;;;;;;;;5025269;28;20046;-75
2023/12/11 14:13:12;;;;;;;0.10;0.10;;;;;;;;;;5024006;28;20957;-75
2023/12/11 14:15:45;;;;;;;0.20;0.20;;;;;;;;;;5026213;28;20054;-74
2023/12/11 14:18:12;;;;;;;0.10;0.10;;;;;;;;;;5027160;28;20060;-75
2023/12/11 14:20:39;;;;;;;0.10;0.10;;;;;;;;;;5027837;28;20204;-76
2023/12/11 14:23:06;;;;;;;0.10;0.10;;;;;;;;;;5027093;28;20054;-74
2023/12/11 14:25:32;;;;;;;0.10;0.10;;;;;;;;;;5025960;28;20511;-74
2023/12/11 14:28:03;;;;;;;0.52;0.52;;;;;;;;;;5042126;28;20146;-75
2023/12/11 14:30:37;;;;;;;0.10;0.10;;;;;;;;;;5023430;28;20163;-74
2023/12/11 14:33:04;;;;;;;0.10;0.10;;;;;;;;;;5027455;28;20603;-75
2023/12/11 14:35:31;;;;;;;0.20;0.20;;;;;;;;;;5026700;28;20046;-74
2023/12/11 14:37:57;;;;;;;0.10;0.10;;;;;;;;;;5027652;28;20061;-75
2023/12/11 14:40:24;;;;;;;0.10;0.10;;;;;;;;;;5027153;28;20064;-74
2023/12/11 14:42:50;;;;;;;0.10;0.10;;;;;;;;;;5026661;28;20054;-74
2023/12/11 14:45:17;;;;;;;0.20;0.20;;;;;;;;;;5027081;28;20088;-75